Time;durP1;ratioP1;P1;durP2;ratioP2;P2;SDS_P1;SDS_P2;PMS_P1;PMS_P2;Temp;Humidity;BMP_temperature;BMP_pressure;BME280_temperature;BME280_humidity;BME280_pressure;Samples;Min_cycle;Max_cycle;Signal;HPM_P1;HPM_P2
2022/03/02 00:02:14;;;;;;;40.58;22.58;;;3.40;99.90;;;;;;5092843;28;20051;-71
2022/03/02 00:04:39;;;;;;;37.90;20.77;;;3.40;99.90;;;;;;5092554;28;20031;-72
2022/03/02 00:07:05;;;;;;;42.00;24.27;;;3.30;99.90;;;;;;5092590;28;20020;-71
2022/03/02 00:09:31;;;;;;;45.92;25.08;;;3.30;99.90;;;;;;5075685;28;20023;-71
2022/03/02 00:11:57;;;;;;;51.45;28.20;;;3.30;99.90;;;;;;5109601;28;20505;-71
2022/03/02 00:14:23;;;;;;;44.78;25.40;;;3.30;99.90;;;;;;5093783;28;20473;-72
2022/03/02 00:16:48;;;;;;;49.22;26.25;;;3.30;99.90;;;;;;5093598;28;20110;-72
2022/03/02 00:19:14;;;;;;;47.85;25.48;;;3.30;99.90;;;;;;5093670;28;20047;-71
2022/03/02 00:21:39;;;;;;;42.33;25.65;;;3.20;99.90;;;;;;5108937;28;20388;-71
2022/03/02 00:24:05;;;;;;;45.47;25.60;;;3.20;99.90;;;;;;5092364;28;20093;-71
2022/03/02 00:26:32;;;;;;;41.20;24.00;;;3.20;99.90;;;;;;5093437;28;20046;-72
2022/03/02 00:28:57;;;;;;;47.65;26.52;;;3.20;99.90;;;;;;5092263;28;20034;-71
2022/03/02 00:31:23;;;;;;;47.60;26.40;;;3.10;99.90;;;;;;5109370;27;20529;-72
2022/03/02 00:33:48;;;;;;;45.97;25.17;;;3.10;99.90;;;;;;5093508;28;20067;-72
2022/03/02 00:36:14;;;;;;;49.97;26.10;;;3.00;99.90;;;;;;5092105;28;20046;-71
2022/03/02 00:38:40;;;;;;;49.90;25.52;;;3.00;99.90;;;;;;5093361;28;20032;-72
2022/03/02 00:41:05;;;;;;;46.00;24.23;;;3.00;99.90;;;;;;5093469;28;20032;-71
2022/03/02 00:43:31;;;;;;;45.65;25.40;;;3.00;99.90;;;;;;5092174;28;20024;-71
2022/03/02 00:45:56;;;;;;;47.88;24.65;;;3.00;99.90;;;;;;5093235;28;20038;-71
2022/03/02 00:48:22;;;;;;;53.10;26.70;;;2.90;99.90;;;;;;5092014;28;20064;-71
2022/03/02 00:50:48;;;;;;;49.05;25.92;;;2.90;99.90;;;;;;5092144;28;20481;-71
2022/03/02 00:53:14;;;;;;;47.88;25.73;;;2.90;99.90;;;;;;5093260;28;20028;-72
2022/03/02 00:55:40;;;;;;;50.47;26.73;;;2.80;99.90;;;;;;5093190;28;20064;-71
2022/03/02 00:58:06;;;;;;;49.00;25.42;;;2.70;99.90;;;;;;5075091;28;20478;-72
2022/03/02 01:00:32;;;;;;;44.30;24.58;;;2.70;99.90;;;;;;5109288;28;20479;-71
2022/03/02 01:02:58;;;;;;;49.30;26.55;;;2.70;99.90;;;;;;5093177;28;20023;-71
2022/03/02 01:05:24;;;;;;;50.08;26.27;;;2.70;99.90;;;;;;5074951;28;20386;-71
2022/03/02 01:07:50;;;;;;;47.95;24.65;;;2.60;99.90;;;;;;5108895;28;20027;-71
2022/03/02 01:10:16;;;;;;;45.72;24.30;;;2.60;99.90;;;;;;5091810;28;20054;-72
2022/03/02 01:12:42;;;;;;;42.38;23.00;;;2.50;99.90;;;;;;5091786;28;20101;-71
2022/03/02 01:15:09;;;;;;;42.80;23.55;;;2.50;99.90;;;;;;5091739;28;20431;-71
2022/03/02 01:17:34;;;;;;;47.08;23.77;;;2.50;99.90;;;;;;5093124;28;20032;-71
2022/03/02 01:20:00;;;;;;;46.95;24.80;;;2.50;99.90;;;;;;5091794;28;20385;-71
2022/03/02 01:22:26;;;;;;;37.53;21.88;;;2.40;99.90;;;;;;5091807;28;20020;-71
2022/03/02 01:24:51;;;;;;;42.70;22.55;;;2.40;99.90;;;;;;5092961;28;20099;-72
2022/03/02 01:27:17;;;;;;;43.75;23.58;;;2.40;99.90;;;;;;5091594;28;20416;-70
2022/03/02 01:29:43;;;;;;;40.53;22.60;;;2.30;99.90;;;;;;5091744;28;20020;-71
2022/03/02 01:32:10;;;;;;;42.13;22.67;;;2.30;99.90;;;;;;5091755;28;20141;-72
2022/03/02 01:34:36;;;;;;;47.78;24.45;;;2.20;99.90;;;;;;5094012;28;20040;-71
2022/03/02 01:37:03;;;;;;;45.35;24.52;;;2.20;99.90;;;;;;5095494;28;20020;-71
2022/03/02 01:39:29;;;;;;;41.88;23.60;;;2.20;99.90;;;;;;5078580;28;20482;-71
2022/03/02 01:41:54;;;;;;;46.20;23.52;;;2.10;99.90;;;;;;5096621;28;20032;-72
2022/03/02 01:44:20;;;;;;;41.28;24.25;;;2.10;99.90;;;;;;5096605;28;20039;-71
2022/03/02 01:46:46;;;;;;;50.05;23.92;;;2.00;99.90;;;;;;5096437;28;20081;-72
2022/03/02 01:49:12;;;;;;;47.30;24.48;;;1.90;99.90;;;;;;5096635;28;20016;-72
2022/03/02 01:51:38;;;;;;;44.65;23.52;;;1.90;99.90;;;;;;5096546;28;20026;-72
2022/03/02 01:54:05;;;;;;;43.17;22.48;;;1.80;99.90;;;;;;5096508;28;20028;-71
2022/03/02 01:56:32;;;;;;;44.05;22.98;;;1.80;99.90;;;;;;5078246;28;20067;-71
2022/03/02 01:58:58;;;;;;;49.08;24.48;;;1.70;99.90;;;;;;5095138;28;20073;-72
2022/03/02 02:01:23;;;;;;;42.42;23.42;;;1.70;99.90;;;;;;5078073;28;20019;-71
2022/03/02 02:03:49;;;;;;;44.78;23.48;;;1.60;99.90;;;;;;5096243;28;20160;-71
2022/03/02 02:06:15;;;;;;;52.40;24.33;;;1.60;99.90;;;;;;5094941;28;20022;-71
2022/03/02 02:08:41;;;;;;;40.63;22.23;;;1.50;99.90;;;;;;5094990;28;20099;-71
2022/03/02 02:11:09;;;;;;;38.90;21.55;;;1.50;99.90;;;;;;5078030;28;20513;-70
2022/03/02 02:13:35;;;;;;;44.20;22.50;;;1.50;99.90;;;;;;5094902;28;20031;-71
2022/03/02 02:16:02;;;;;;;46.72;22.75;;;1.50;99.90;;;;;;5094821;28;20385;-71
2022/03/02 02:18:28;;;;;;;42.95;23.05;;;1.40;99.90;;;;;;5094674;28;20021;-71
2022/03/02 02:20:54;;;;;;;43.03;23.92;;;1.40;99.90;;;;;;5095788;28;20024;-71
2022/03/02 02:23:20;;;;;;;44.58;24.88;;;1.40;99.90;;;;;;5094671;28;20059;-71
2022/03/02 02:25:45;;;;;;;45.85;23.73;;;1.40;99.90;;;;;;5095735;28;20071;-71
2022/03/02 02:28:12;;;;;;;43.42;23.27;;;1.40;99.90;;;;;;5095710;28;20020;-71
2022/03/02 02:30:39;;;;;;;41.28;23.80;;;1.40;99.90;;;;;;5095800;28;20016;-71
2022/03/02 02:33:05;;;;;;;42.47;22.58;;;1.30;99.90;;;;;;5094421;28;20020;-71
2022/03/02 02:35:30;;;;;;;44.50;23.95;;;1.30;99.90;;;;;;5094234;28;20432;-71
2022/03/02 02:37:58;;;;;;;40.28;23.75;;;1.30;99.90;;;;;;5077413;28;20077;-71
2022/03/02 02:40:26;;;;;;;49.90;25.45;;;1.30;99.90;;;;;;5094217;28;20027;-71
2022/03/02 02:42:51;;;;;;;50.20;25.67;;;1.30;99.90;;;;;;5094261;28;20020;-71
2022/03/02 02:45:20;;;;;;;49.13;24.50;;;1.30;99.90;;;;;;5110812;27;20485;-71
2022/03/02 02:47:55;;;;;;;45.85;24.20;;;1.30;99.90;;;;;;5077841;28;20024;-70
2022/03/02 02:50:26;;;;;;;48.72;24.88;;;1.30;99.90;;;;;;5094190;28;20478;-71
2022/03/02 02:52:54;;;;;;;45.95;24.90;;;1.30;99.90;;;;;;5095320;28;20063;-71
2022/03/02 02:55:21;;;;;;;45.28;24.83;;;1.20;99.90;;;;;;5093943;28;20470;-71
2022/03/02 02:57:48;;;;;;;46.90;24.95;;;1.20;99.90;;;;;;5094013;28;20027;-71
2022/03/02 03:00:18;;;;;;;47.28;24.13;;;1.20;99.90;;;;;;5095196;28;20497;-72
2022/03/02 03:02:47;;;;;;;46.15;24.50;;;1.20;99.90;;;;;;5093938;28;20386;-70
2022/03/02 03:05:15;;;;;;;44.67;23.10;;;1.30;99.90;;;;;;5111113;27;20381;-70
2022/03/02 03:07:42;;;;;;;47.97;23.60;;;1.40;99.90;;;;;;5093694;28;20031;-71
2022/03/02 03:10:10;;;;;;;41.60;23.40;;;1.40;99.90;;;;;;5093783;28;20027;-71
2022/03/02 03:12:36;;;;;;;45.80;24.50;;;1.40;99.90;;;;;;5076894;28;20035;-71
2022/03/02 03:15:05;;;;;;;40.90;21.88;;;1.40;99.90;;;;;;5094769;28;20020;-71
2022/03/02 03:17:31;;;;;;;45.42;23.52;;;1.40;99.90;;;;;;5093556;28;20081;-71
2022/03/02 03:19:56;;;;;;;45.25;22.13;;;1.40;99.90;;;;;;5094685;28;20032;-71
2022/03/02 03:22:22;;;;;;;41.70;21.55;;;1.50;99.90;;;;;;5093791;28;20030;-71
2022/03/02 03:24:47;;;;;;;42.88;22.10;;;1.50;99.90;;;;;;5076447;28;20024;-71
2022/03/02 03:27:13;;;;;;;39.92;21.75;;;1.50;99.90;;;;;;5094597;28;20020;-71
2022/03/02 03:29:39;;;;;;;42.03;21.23;;;1.50;99.90;;;;;;5110413;28;20112;-71
2022/03/02 03:32:06;;;;;;;45.13;23.33;;;1.40;99.90;;;;;;5094551;28;20077;-71
2022/03/02 03:34:31;;;;;;;46.50;23.42;;;1.40;99.90;;;;;;5092993;28;20123;-71
2022/03/02 03:36:57;;;;;;;41.15;21.98;;;1.40;99.90;;;;;;5093251;28;20074;-72
2022/03/02 03:39:23;;;;;;;37.15;21.25;;;1.30;99.90;;;;;;5094327;28;20118;-71
2022/03/02 03:41:48;;;;;;;42.00;21.98;;;1.30;99.90;;;;;;5094349;28;20501;-71
2022/03/02 03:44:14;;;;;;;42.13;22.45;;;1.20;99.90;;;;;;5094255;28;20028;-71
2022/03/02 03:46:40;;;;;;;42.35;22.65;;;1.20;99.90;;;;;;5093027;28;20173;-71
2022/03/02 03:49:05;;;;;;;44.20;22.35;;;1.10;99.90;;;;;;5094354;28;20146;-72
2022/03/02 03:51:31;;;;;;;43.72;21.60;;;1.10;99.90;;;;;;5094085;28;20481;-71
2022/03/02 03:53:56;;;;;;;41.55;21.60;;;1.10;99.90;;;;;;5094175;28;20478;-70
2022/03/02 03:56:22;;;;;;;40.13;21.50;;;1.00;99.90;;;;;;5092379;28;20111;-71
2022/03/02 03:58:47;;;;;;;39.63;22.23;;;1.00;99.90;;;;;;5092412;28;20034;-71
2022/03/02 04:01:14;;;;;;;40.65;21.95;;;0.90;99.90;;;;;;5094003;28;20482;-71
2022/03/02 04:03:39;;;;;;;43.20;21.75;;;0.90;99.90;;;;;;5092688;28;20031;-71
2022/03/02 04:06:05;;;;;;;40.00;23.27;;;0.80;99.90;;;;;;5075794;28;20469;-71
2022/03/02 04:08:30;;;;;;;42.45;22.80;;;0.90;99.90;;;;;;5109643;28;20056;-72
2022/03/02 04:10:56;;;;;;;37.90;21.38;;;0.90;99.90;;;;;;5093813;28;20012;-71
2022/03/02 04:13:21;;;;;;;38.45;20.83;;;0.80;99.90;;;;;;5093754;28;20382;-71
2022/03/02 04:15:47;;;;;;;40.35;21.98;;;0.80;99.90;;;;;;5092450;28;20085;-71
2022/03/02 04:18:13;;;;;;;44.20;21.77;;;0.70;99.90;;;;;;5093786;28;20020;-71
2022/03/02 04:20:38;;;;;;;47.75;22.58;;;0.80;99.90;;;;;;5075598;28;20606;-71
2022/03/02 04:23:05;;;;;;;41.53;21.90;;;0.80;99.90;;;;;;5093624;28;20038;-72
2022/03/02 04:25:31;;;;;;;42.25;22.30;;;0.80;99.90;;;;;;5092212;28;20050;-71
2022/03/02 04:27:56;;;;;;;44.65;23.23;;;0.80;99.90;;;;;;5092259;28;20026;-71
2022/03/02 04:30:22;;;;;;;44.10;22.77;;;0.80;99.90;;;;;;5092362;28;20026;-71
2022/03/02 04:32:48;;;;;;;46.78;22.35;;;0.90;99.90;;;;;;5093572;28;20016;-71
2022/03/02 04:35:14;;;;;;;45.90;22.95;;;0.90;99.90;;;;;;5093342;28;20085;-71
2022/03/02 04:37:41;;;;;;;45.35;22.98;;;0.90;99.90;;;;;;5092345;28;20098;-70
2022/03/02 04:40:10;;;;;;;43.33;22.30;;;0.80;99.90;;;;;;5093390;28;20024;-71
2022/03/02 04:42:37;;;;;;;40.45;22.13;;;0.70;99.90;;;;;;5092422;28;20061;-71
2022/03/02 04:45:04;;;;;;;41.65;21.92;;;0.60;99.90;;;;;;5093334;28;20032;-71
2022/03/02 04:47:30;;;;;;;38.40;21.30;;;0.50;99.90;;;;;;5092056;28;20028;-71
2022/03/02 04:49:56;;;;;;;41.03;22.27;;;0.40;99.90;;;;;;5092167;28;20023;-72
2022/03/02 04:52:21;;;;;;;46.85;22.88;;;0.40;99.90;;;;;;5092116;28;20082;-70
2022/03/02 04:55:18;;;;;;;42.17;23.17;;;0.30;99.90;;;;;;5091927;28;20056;-71
2022/03/02 04:57:36;;;;;;;47.63;23.60;;;0.20;99.90;;;;;;5093040;28;20066;-70
2022/03/02 05:00:07;;;;;;;47.40;24.23;;;0.20;99.90;;;;;;5093137;28;20020;-70
2022/03/02 05:02:32;;;;;;;50.22;25.20;;;0.10;99.90;;;;;;5093162;28;20028;-71
2022/03/02 05:04:58;;;;;;;50.47;24.88;;;0.10;99.90;;;;;;5091911;28;20024;-71
2022/03/02 05:07:23;;;;;;;41.63;23.77;;;0.00;99.90;;;;;;5091857;28;20031;-71
2022/03/02 05:09:49;;;;;;;44.92;24.85;;;0.00;99.90;;;;;;5095376;28;20110;-71
2022/03/02 05:12:14;;;;;;;51.00;25.95;;;0.00;99.90;;;;;;5079052;28;20032;-70
2022/03/02 05:14:40;;;;;;;45.58;23.20;;;-0.10;99.90;;;;;;5096031;28;20020;-71
2022/03/02 05:17:05;;;;;;;48.28;24.15;;;-0.10;99.90;;;;;;5097104;28;20062;-70
2022/03/02 05:19:33;;;;;;;44.08;23.45;;;-0.10;99.90;;;;;;5078867;28;20019;-71
2022/03/02 05:21:58;;;;;;;49.60;24.83;;;-0.20;99.90;;;;;;5095725;28;20448;-72
2022/03/02 05:24:24;;;;;;;47.75;24.52;;;-0.20;99.90;;;;;;5078787;28;20024;-71
2022/03/02 05:26:50;;;;;;;48.20;24.60;;;-0.20;99.90;;;;;;5096894;28;20069;-71
2022/03/02 05:29:15;;;;;;;43.28;22.65;;;-0.30;99.90;;;;;;5095589;28;20126;-71
2022/03/02 05:31:40;;;;;;;43.53;23.05;;;-0.30;99.90;;;;;;5095676;28;20061;-70
2022/03/02 05:34:06;;;;;;;44.92;24.08;;;-0.30;99.90;;;;;;5096609;28;20020;-71
2022/03/02 05:36:32;;;;;;;47.85;22.23;;;-0.30;99.90;;;;;;5095444;28;20038;-71
2022/03/02 05:38:58;;;;;;;40.15;21.63;;;-0.40;99.90;;;;;;5078585;28;20106;-70
2022/03/02 05:41:23;;;;;;;37.55;21.27;;;-0.40;99.90;;;;;;5096705;28;20056;-70
2022/03/02 05:43:50;;;;;;;41.75;22.55;;;-0.40;99.90;;;;;;5096655;28;20036;-70
2022/03/02 05:46:16;;;;;;;44.13;22.42;;;-0.40;99.90;;;;;;5095394;28;20024;-71
2022/03/02 05:48:41;;;;;;;42.83;21.40;;;-0.30;99.90;;;;;;5095408;28;20017;-72
2022/03/02 05:51:07;;;;;;;43.30;22.45;;;-0.20;99.90;;;;;;5095252;28;20023;-71
2022/03/02 05:53:32;;;;;;;38.28;19.65;;;-0.20;99.90;;;;;;5095239;28;20046;-70
2022/03/02 05:55:58;;;;;;;41.65;21.98;;;-0.20;99.90;;;;;;5095050;28;20024;-71
2022/03/02 05:58:25;;;;;;;41.70;22.20;;;-0.10;99.90;;;;;;5095059;28;20114;-71
2022/03/02 06:00:51;;;;;;;46.65;22.80;;;-0.10;99.90;;;;;;5095163;28;20020;-71
2022/03/02 06:03:17;;;;;;;38.15;21.20;;;-0.10;99.90;;;;;;5096227;28;20055;-70
2022/03/02 06:05:42;;;;;;;41.25;22.38;;;-0.10;99.90;;;;;;5094929;28;20027;-71
2022/03/02 06:08:10;;;;;;;44.33;22.95;;;-0.10;99.90;;;;;;5096207;28;20016;-71
2022/03/02 06:10:36;;;;;;;51.13;23.70;;;-0.10;99.90;;;;;;5094839;28;20042;-71
2022/03/02 06:13:02;;;;;;;43.40;21.55;;;-0.10;99.90;;;;;;5096042;28;20435;-71
2022/03/02 06:15:28;;;;;;;38.95;20.42;;;-0.10;99.90;;;;;;5094794;28;20032;-70
2022/03/02 06:17:53;;;;;;;38.00;20.00;;;-0.10;99.90;;;;;;5094443;28;20390;-70
2022/03/02 06:20:19;;;;;;;39.38;21.17;;;-0.20;99.90;;;;;;5095047;28;20024;-71
2022/03/02 06:22:45;;;;;;;44.60;22.92;;;-0.20;99.90;;;;;;5095902;28;20028;-71
2022/03/02 06:25:12;;;;;;;46.90;22.77;;;-0.20;99.90;;;;;;5095867;28;20054;-71
2022/03/02 06:27:38;;;;;;;42.67;22.95;;;-0.10;99.90;;;;;;5094634;28;20401;-71
2022/03/02 06:30:06;;;;;;;39.60;22.08;;;-0.10;99.90;;;;;;5094514;28;20433;-71
2022/03/02 06:32:34;;;;;;;42.03;22.20;;;-0.10;99.90;;;;;;5077787;28;20474;-71
2022/03/02 06:35:00;;;;;;;39.35;20.98;;;-0.10;99.90;;;;;;5095436;28;20493;-70
2022/03/02 06:37:26;;;;;;;44.42;22.85;;;-0.10;99.90;;;;;;5094282;28;20024;-71
2022/03/02 06:39:54;;;;;;;52.35;22.88;;;0.00;99.90;;;;;;5111455;28;20097;-70
2022/03/02 06:42:24;;;;;;;46.80;23.90;;;0.00;99.90;;;;;;5095429;28;20105;-70
2022/03/02 06:45:01;;;;;;;51.08;23.83;;;-0.10;99.90;;;;;;5077362;28;20551;-71
2022/03/02 06:47:31;;;;;;;65.78;26.48;;;0.00;99.90;;;;;;5095283;28;20119;-70
2022/03/02 06:52:44;;;;;;;50.78;23.60;;;0.00;99.90;;;;;;5110930;27;20367;-70
2022/03/02 06:55:15;;;;;;;56.28;24.25;;;0.10;99.90;;;;;;5092984;28;20028;-70
2022/03/02 06:57:50;;;;;;;52.38;23.77;;;0.10;99.90;;;;;;5093082;28;20020;-71
2022/03/02 07:00:16;;;;;;;54.15;25.75;;;0.20;99.90;;;;;;5092649;28;20034;-70
2022/03/02 07:02:51;;;;;;;48.00;23.98;;;0.30;99.90;;;;;;5091521;28;20089;-71
2022/03/02 07:05:18;;;;;;;50.08;23.92;;;0.30;99.90;;;;;;5092101;28;20038;-71
2022/03/02 07:07:46;;;;;;;51.28;23.73;;;0.50;99.90;;;;;;5092145;28;20052;-72
2022/03/02 07:10:12;;;;;;;53.65;24.35;;;0.60;99.90;;;;;;5091062;28;20073;-70
2022/03/02 07:12:39;;;;;;;58.08;25.30;;;0.70;99.90;;;;;;5092045;28;20028;-71
2022/03/02 07:15:05;;;;;;;48.70;24.48;;;0.80;99.90;;;;;;5109462;28;20035;-72
2022/03/02 07:17:32;;;;;;;50.15;24.17;;;1.00;99.90;;;;;;5097040;28;20020;-72
2022/03/02 07:20:00;;;;;;;47.13;23.38;;;1.20;99.90;;;;;;5091390;28;20087;-72
2022/03/02 07:22:31;;;;;;;50.22;23.67;;;1.50;99.90;;;;;;5074354;28;20035;-71
2022/03/02 07:25:03;;;;;;;47.53;24.10;;;1.80;99.90;;;;;;5076690;28;20036;-71
2022/03/02 07:27:29;;;;;;;44.05;22.83;;;2.40;99.90;;;;;;5091573;28;20038;-71
2022/03/02 07:29:54;;;;;;;43.58;21.83;;;3.90;99.90;;;;;;5091411;28;20028;-71
2022/03/02 07:32:30;;;;;;;37.97;21.20;;;5.60;99.90;;;;;;5077889;28;20030;-71
2022/03/02 07:34:58;;;;;;;30.83;17.98;;;7.10;99.90;;;;;;5108246;28;20353;-72
2022/03/02 07:37:25;;;;;;;29.63;17.35;;;8.80;99.90;;;;;;5099227;28;20160;-72
2022/03/02 07:39:52;;;;;;;30.05;17.27;;;9.70;99.90;;;;;;5109301;28;20377;-72
2022/03/02 07:42:19;;;;;;;29.92;16.30;;;10.40;98.60;;;;;;5090711;28;20549;-72
2022/03/02 07:44:46;;;;;;;28.05;16.90;;;11.60;92.80;;;;;;5088782;28;20457;-73
2022/03/02 07:47:12;;;;;;;27.67;17.17;;;11.10;88.20;;;;;;5117670;28;20028;-73
2022/03/02 07:49:37;;;;;;;29.33;17.33;;;10.20;92.80;;;;;;5105204;28;20496;-71
2022/03/02 07:52:05;;;;;;;27.10;17.45;;;9.70;94.50;;;;;;5078295;28;20065;-72
2022/03/02 07:54:35;;;;;;;26.95;16.00;;;8.90;96.70;;;;;;5077222;28;20029;-72
2022/03/02 07:57:01;;;;;;;23.13;16.60;;;9.60;97.10;;;;;;5068858;28;20476;-72
2022/03/02 07:59:34;;;;;;;27.60;17.02;;;10.90;91.30;;;;;;5068482;28;20024;-71
2022/03/02 08:02:00;;;;;;;24.55;16.48;;;11.50;85.30;;;;;;5064748;28;20029;-71
2022/03/02 08:04:27;;;;;;;24.40;15.68;;;12.20;81.40;;;;;;5056561;28;20029;-72
2022/03/02 08:06:54;;;;;;;33.75;17.35;;;12.40;76.30;;;;;;5058445;28;20033;-72
2022/03/02 08:09:20;;;;;;;22.23;15.32;;;12.40;74.40;;;;;;5054846;28;20103;-71
2022/03/02 08:11:47;;;;;;;24.88;15.00;;;12.50;70.60;;;;;;5055087;28;20107;-72
2022/03/02 08:14:12;;;;;;;20.00;14.55;;;12.20;68.00;;;;;;5054161;28;20040;-72
2022/03/02 08:16:38;;;;;;;22.77;15.10;;;12.00;67.90;;;;;;5055060;28;20029;-73
2022/03/02 08:19:05;;;;;;;24.80;16.10;;;12.40;65.70;;;;;;5044521;28;20029;-72
2022/03/02 08:21:32;;;;;;;20.90;14.20;;;12.30;64.90;;;;;;5058565;28;20032;-73
2022/03/02 08:24:02;;;;;;;25.27;16.25;;;12.30;65.50;;;;;;5052719;28;20466;-72
2022/03/02 08:26:32;;;;;;;27.88;17.75;;;12.80;66.40;;;;;;5061236;28;20021;-72
2022/03/02 08:29:02;;;;;;;27.90;17.88;;;13.00;64.00;;;;;;5053742;28;20108;-73
2022/03/02 08:31:29;;;;;;;22.63;15.63;;;13.60;59.70;;;;;;5054321;28;20036;-72
2022/03/02 08:33:55;;;;;;;26.40;16.52;;;13.30;57.90;;;;;;5041701;28;20021;-72
2022/03/02 08:36:23;;;;;;;18.70;13.18;;;13.20;57.80;;;;;;5050584;28;20406;-72
2022/03/02 08:38:50;;;;;;;21.30;13.88;;;13.30;57.80;;;;;;5061608;28;20093;-72
2022/03/02 08:41:18;;;;;;;23.75;14.00;;;13.80;56.50;;;;;;5044863;28;20028;-73
2022/03/02 08:43:44;;;;;;;19.08;13.60;;;14.50;54.30;;;;;;5034263;28;20025;-73
2022/03/02 08:46:10;;;;;;;25.10;14.05;;;15.30;51.10;;;;;;5046577;28;20079;-72
2022/03/02 08:48:36;;;;;;;19.20;13.32;;;14.90;50.30;;;;;;5068707;28;20029;-72
2022/03/02 08:51:02;;;;;;;20.35;13.45;;;14.40;51.80;;;;;;5077953;28;20048;-71
2022/03/02 08:53:31;;;;;;;23.75;14.88;;;14.40;51.70;;;;;;5087038;28;20031;-74
2022/03/02 08:56:00;;;;;;;19.70;14.15;;;14.90;53.10;;;;;;5069250;28;20035;-73
2022/03/02 08:58:28;;;;;;;19.98;14.73;;;13.80;52.90;;;;;;5063454;28;20020;-72
2022/03/02 09:00:54;;;;;;;21.50;13.93;;;13.80;55.10;;;;;;5080681;28;20052;-73
2022/03/02 09:03:22;;;;;;;18.98;13.10;;;14.30;56.50;;;;;;5093620;28;20539;-73
2022/03/02 09:05:49;;;;;;;18.52;13.02;;;14.30;54.70;;;;;;5077728;28;20035;-72
2022/03/02 09:08:15;;;;;;;20.30;13.80;;;14.60;53.40;;;;;;5075856;28;20458;-73
2022/03/02 09:10:42;;;;;;;20.35;13.52;;;14.10;54.00;;;;;;5099722;28;20028;-73
2022/03/02 09:13:10;;;;;;;19.95;13.02;;;13.30;55.60;;;;;;5088802;28;20032;-72
2022/03/02 09:15:37;;;;;;;16.10;11.77;;;14.10;52.40;;;;;;5078246;28;20031;-72
2022/03/02 09:18:04;;;;;;;18.08;12.52;;;15.00;48.50;;;;;;5077138;28;20065;-72
2022/03/02 09:20:30;;;;;;;20.73;13.30;;;15.20;50.10;;;;;;5075910;28;20023;-71
2022/03/02 09:22:58;;;;;;;21.00;12.77;;;15.60;47.80;;;;;;5086290;28;20062;-72
2022/03/02 09:25:24;;;;;;;18.13;12.00;;;15.20;48.20;;;;;;5075535;28;20030;-72
2022/03/02 09:27:51;;;;;;;20.20;12.35;;;15.60;46.20;;;;;;5058651;28;20046;-72
2022/03/02 09:30:16;;;;;;;18.75;12.48;;;15.60;47.00;;;;;;5093764;28;20031;-72
2022/03/02 09:32:42;;;;;;;23.88;13.82;;;15.00;44.70;;;;;;5059868;28;20020;-73
2022/03/02 09:35:15;;;;;;;18.35;13.30;;;15.40;45.20;;;;;;5093428;28;20423;-73
2022/03/02 09:37:49;;;;;;;19.65;13.68;;;15.00;45.60;;;;;;5079304;28;20182;-73
2022/03/02 09:40:22;;;;;;;21.58;13.18;;;15.10;45.00;;;;;;5087090;28;20107;-73
2022/03/02 09:43:02;;;;;;;21.70;13.70;;;15.40;46.90;;;;;;5088318;28;20024;-72
2022/03/02 09:45:31;;;;;;;20.95;13.50;;;15.00;44.00;;;;;;5056008;28;20028;-75
2022/03/02 09:47:59;;;;;;;23.27;14.20;;;15.20;45.00;;;;;;5086961;28;20024;-76
2022/03/02 09:50:31;;;;;;;25.48;15.65;;;13.90;45.90;;;;;;5092514;28;20020;-74
2022/03/02 09:52:59;;;;;;;25.92;15.52;;;14.10;46.30;;;;;;5079395;28;20012;-77
2022/03/02 09:55:25;;;;;;;22.35;14.73;;;14.40;46.80;;;;;;5091792;28;20058;-73
2022/03/02 09:57:54;;;;;;;22.80;15.27;;;14.30;48.10;;;;;;5075439;28;20063;-74
2022/03/02 10:00:23;;;;;;;22.85;14.13;;;14.90;48.50;;;;;;5078564;28;20095;-74
2022/03/02 10:02:55;;;;;;;22.23;15.10;;;15.00;47.20;;;;;;5092322;28;20016;-74
2022/03/02 10:05:25;;;;;;;22.73;14.32;;;14.90;46.50;;;;;;5090735;28;20165;-74
2022/03/02 10:07:57;;;;;;;21.40;15.30;;;14.60;46.20;;;;;;5063656;28;20023;-74
2022/03/02 10:10:24;;;;;;;20.33;14.23;;;14.80;47.10;;;;;;5079081;28;20068;-74
2022/03/02 10:12:53;;;;;;;22.35;15.13;;;14.80;47.10;;;;;;5062322;28;20473;-73
2022/03/02 10:15:19;;;;;;;20.90;14.75;;;15.10;47.10;;;;;;5089073;28;20477;-73
2022/03/02 10:17:48;;;;;;;23.48;14.98;;;15.90;45.60;;;;;;5085350;28;20070;-73
2022/03/02 10:20:19;;;;;;;23.67;15.40;;;15.90;44.90;;;;;;5093018;28;20435;-73
2022/03/02 10:26:04;;;;;;;21.33;14.82;;;16.80;42.70;;;;;;5112712;27;20302;-72
2022/03/02 10:28:51;;;;;;;18.45;13.93;;;16.00;43.60;;;;;;5113385;28;20401;-74
2022/03/02 10:31:40;;;;;;;18.23;13.98;;;16.10;43.50;;;;;;5133734;27;20468;-73
2022/03/02 10:37:08;;;;;;;22.48;15.55;;;16.20;43.80;;;;;;5114922;27;20471;-73
2022/03/02 10:39:57;;;;;;;23.25;15.18;;;16.70;43.00;;;;;;5107698;28;20032;-73
2022/03/02 10:42:30;;;;;;;22.58;14.95;;;16.50;42.30;;;;;;5093205;28;20025;-73
2022/03/02 10:45:26;;;;;;;19.58;14.10;;;15.90;44.10;;;;;;5089135;28;20031;-72
2022/03/02 10:48:22;;;;;;;19.73;13.25;;;16.40;41.70;;;;;;5099469;28;20472;-72
2022/03/02 10:50:51;;;;;;;20.27;13.95;;;16.70;41.60;;;;;;5094811;28;20028;-73
2022/03/02 10:53:19;;;;;;;20.63;14.48;;;16.70;41.90;;;;;;5093945;28;20036;-73
2022/03/02 10:55:47;;;;;;;24.52;15.27;;;15.80;43.90;;;;;;5092474;28;20019;-72
2022/03/02 10:58:17;;;;;;;22.63;15.20;;;15.80;44.90;;;;;;5098644;28;20055;-72
2022/03/02 11:00:43;;;;;;;21.27;14.48;;;16.20;45.90;;;;;;5079745;28;20020;-72
2022/03/02 11:03:09;;;;;;;26.00;15.93;;;15.70;44.90;;;;;;5076610;28;20035;-73
2022/03/02 11:05:35;;;;;;;21.65;15.32;;;15.40;44.80;;;;;;5086019;28;20027;-73
2022/03/02 11:08:02;;;;;;;20.77;14.13;;;15.60;45.60;;;;;;5105513;28;20063;-73
2022/03/02 11:10:33;;;;;;;20.88;14.75;;;15.70;42.80;;;;;;5092834;28;20029;-73
2022/03/02 11:13:00;;;;;;;19.15;13.85;;;15.40;44.00;;;;;;5097596;28;20051;-73
2022/03/02 11:15:26;;;;;;;25.15;16.35;;;14.80;44.30;;;;;;5081795;28;20054;-73
2022/03/02 11:17:57;;;;;;;22.73;15.38;;;14.70;44.70;;;;;;5089449;28;20551;-73
2022/03/02 11:20:24;;;;;;;25.48;16.15;;;14.50;46.40;;;;;;5093282;28;20377;-72
2022/03/02 11:23:02;;;;;;;24.58;16.70;;;14.50;46.80;;;;;;5097138;28;20016;-73
2022/03/02 11:25:50;;;;;;;20.98;16.45;;;15.40;45.60;;;;;;5091236;28;20046;-73
2022/03/02 11:28:18;;;;;;;20.52;12.57;;;15.30;44.30;;;;;;5096531;28;20025;-73
2022/03/02 11:30:47;;;;;;;16.50;11.38;;;15.40;42.00;;;;;;5095537;28;20505;-73
2022/03/02 11:33:15;;;;;;;22.45;12.15;;;15.20;40.90;;;;;;5082032;28;20036;-73
2022/03/02 11:35:43;;;;;;;18.60;12.55;;;14.40;42.30;;;;;;5079888;28;20067;-73
2022/03/02 11:38:10;;;;;;;16.98;12.32;;;13.70;43.50;;;;;;5095586;28;20103;-73
2022/03/02 11:40:39;;;;;;;22.52;12.98;;;13.40;45.30;;;;;;5076873;28;20022;-73
2022/03/02 11:43:18;;;;;;;18.08;12.82;;;13.60;44.80;;;;;;5070198;28;20025;-74
2022/03/02 11:45:44;;;;;;;18.17;12.05;;;14.10;44.20;;;;;;5094426;28;20428;-73
2022/03/02 11:48:13;;;;;;;17.77;12.23;;;13.60;44.60;;;;;;5095912;28;20020;-74
2022/03/02 11:51:12;;;;;;;18.70;12.30;;;13.40;46.50;;;;;;5070696;28;20024;-73
2022/03/02 11:53:41;;;;;;;18.25;11.98;;;13.30;48.10;;;;;;5061043;28;20331;-73
2022/03/02 11:56:10;;;;;;;22.17;12.45;;;13.10;48.90;;;;;;5077734;28;20032;-73
2022/03/02 11:58:57;;;;;;;17.15;12.00;;;13.00;48.90;;;;;;5094199;28;20032;-73
2022/03/02 12:01:24;;;;;;;18.58;11.45;;;12.70;48.20;;;;;;5077481;28;20035;-72
2022/03/02 12:04:00;;;;;;;18.52;11.95;;;12.60;49.70;;;;;;5088632;28;20093;-73
2022/03/02 12:06:29;;;;;;;17.50;11.35;;;12.70;50.80;;;;;;5095839;28;20035;-73
2022/03/02 12:08:57;;;;;;;20.08;11.75;;;12.70;46.40;;;;;;5062717;28;20078;-73
2022/03/02 12:11:31;;;;;;;17.63;11.13;;;12.70;46.90;;;;;;5073803;28;20031;-72
2022/03/02 12:14:06;;;;;;;17.02;11.10;;;12.60;48.10;;;;;;5061036;28;20028;-73
2022/03/02 12:16:51;;;;;;;15.52;11.15;;;12.00;47.90;;;;;;5053655;28;20426;-73
2022/03/02 12:19:24;;;;;;;16.92;11.23;;;12.20;48.30;;;;;;5092531;28;20025;-73
2022/03/02 12:21:52;;;;;;;;;;;12.20;49.20;;;;;;5074571;28;20454;-73
2022/03/02 12:24:26;;;;;;;16.17;10.65;;;12.30;50.10;;;;;;5072480;28;19917;-73
2022/03/02 12:26:58;;;;;;;18.38;11.77;;;12.60;49.70;;;;;;5078395;28;20516;-73
2022/03/02 12:29:25;;;;;;;17.33;11.88;;;12.40;51.40;;;;;;5078378;28;20478;-73
2022/03/02 12:32:04;;;;;;;17.77;11.90;;;12.40;50.20;;;;;;5072258;28;20116;-73
2022/03/02 12:34:35;;;;;;;18.38;11.30;;;12.30;49.00;;;;;;5073342;28;20081;-73
2022/03/02 12:37:01;;;;;;;14.85;11.25;;;12.50;48.40;;;;;;5064676;28;20036;-73
2022/03/02 12:39:27;;;;;;;20.52;12.18;;;12.50;47.70;;;;;;5085836;28;20016;-73
2022/03/02 12:41:53;;;;;;;19.83;11.98;;;12.50;47.90;;;;;;5077495;28;20025;-73
2022/03/02 12:44:20;;;;;;;16.23;10.65;;;12.30;48.30;;;;;;5057320;28;20032;-73
2022/03/02 12:46:48;;;;;;;16.23;10.52;;;12.00;48.50;;;;;;5080719;28;20099;-73